To NAV CANADA Home Page Login to a new session Search on AWWS site Feedback and Comments Disclaimer Vers la page française équivalente Tips FAQ What's new on the site To the Forecasts and Observations / NOTAM section To "File a Flight Plan" website Publications and other links Update of the User's profile FIC Telephone Numbers My Weather Data Folder Route Weather Data Regional Weather Data Local Weather Data To the Forecasts and Observations / NOTAM section
Request Generated 05/06/2016 at 07:24:11 UTC . Weather information available at that time is displayed.

METAR/TAF

REGINA/REGINA INTL/SK    

METAR CYQR 060700Z 35024G31KT 15SM FEW080 BKN140 BKN280 15/05 A2990
RMK AC1AC5CI1 SLP123 DENSITY ALT 2300FT=
METAR CYQR 060600Z 35019G28KT 14SM FEW140 SCT280 16/05 A2986 RMK
AC2CI1 HZ SLP111 DENSITY ALT 2400FT=
METAR CYQR 060500Z 34016G23KT 14SM BKN140 BKN280 18/06 A2983 RMK
AC6CI1 HZ SLP101 DENSITY ALT 2700FT=

TAF CYQR 060538Z 0606/0706 32015G25KT P6SM SCT120 BKN200
FM061300 33015KT P6SM FEW200
FM061800 33020KT P6SM SKC
BECMG 0623/0701 34008KT
RMK NXT FCST BY 061200Z=
Your time UTC time
Weather data provided by Environment Canada and NAV CANADA